Time;durP1;ratioP1;P1;durP2;ratioP2;P2;SDS_P1;SDS_P2;PMS_P1;PMS_P2;Temp;Humidity;BMP_temperature;BMP_pressure;BME280_temperature;BME280_humidity;BME280_pressure;Samples;Min_cycle;Max_cycle;Signal;HPM_P1;HPM_P2
2023/08/02 00:00:59;;;;;;;3.33;1.88;;;;;;;;;;5059498;28;20443;-72
2023/08/02 00:03:26;;;;;;;2.20;1.92;;;;;;;;;;5064264;28;20459;-71
2023/08/02 00:05:55;;;;;;;5.00;1.90;;;;;;;;;;5057345;28;20519;-71
2023/08/02 00:08:22;;;;;;;3.70;1.80;;;;;;;;;;5069251;28;20493;-73
2023/08/02 00:10:49;;;;;;;3.60;1.77;;;;;;;;;;5059609;28;20449;-72
2023/08/02 00:13:17;;;;;;;2.60;1.83;;;;;;;;;;5067483;28;20514;-72
2023/08/02 00:15:44;;;;;;;2.22;1.60;;;;;;;;;;5055496;28;20434;-72
2023/08/02 00:18:16;;;;;;;2.65;1.52;;;;;;;;;;5055742;28;20748;-72
2023/08/02 00:20:48;;;;;;;2.72;1.77;;;;;;;;;;5057089;28;21006;-71
2023/08/02 00:23:15;;;;;;;5.10;4.22;;;;;;;;;;5064745;28;20475;-72
2023/08/02 00:25:42;;;;;;;6.35;5.60;;;;;;;;;;5060084;28;20503;-71
2023/08/02 00:28:09;;;;;;;2.73;2.50;;;;;;;;;;5052378;28;20448;-72
2023/08/02 00:30:46;;;;;;;4.13;3.83;;;;;;;;;;5056027;28;20444;-72
2023/08/02 00:33:16;;;;;;;88.30;81.00;;;;;;;;;;5054028;28;20423;-73
2023/08/02 00:35:44;;;;;;;350.38;318.50;;;;;;;;;;5061987;28;20487;-72
2023/08/02 00:38:14;;;;;;;3.60;1.60;;;;;;;;;;5063009;28;20935;-72
2023/08/02 00:40:42;;;;;;;272.85;248.45;;;;;;;;;;5059825;28;20520;-72
2023/08/02 00:43:12;;;;;;;113.75;104.05;;;;;;;;;;5054088;28;20513;-72
2023/08/02 00:45:39;;;;;;;16.70;14.40;;;;;;;;;;5061040;28;20473;-73
2023/08/02 00:48:27;;;;;;;260.63;238.07;;;;;;;;;;5067712;28;20403;-73
2023/08/02 00:51:12;;;;;;;554.72;504.60;;;;;;;;;;5060893;28;20400;-72
2023/08/02 00:53:39;;;;;;;592.53;536.20;;;;;;;;;;5056000;28;20435;-71
2023/08/02 00:56:07;;;;;;;581.55;526.65;;;;;;;;;;5065801;28;20435;-74
2023/08/02 00:58:34;;;;;;;697.70;632.45;;;;;;;;;;5066439;28;20481;-72
2023/08/02 01:01:08;;;;;;;732.70;664.67;;;;;;;;;;5065067;28;20886;-73
2023/08/02 01:03:39;;;;;;;821.10;671.05;;;;;;;;;;5054713;28;20436;-72
2023/08/02 01:06:24;;;;;;;780.38;674.33;;;;;;;;;;5068959;28;20449;-73
2023/08/02 01:08:58;;;;;;;749.55;669.97;;;;;;;;;;5063082;28;20514;-72
2023/08/02 01:11:28;;;;;;;764.50;665.00;;;;;;;;;;5058523;28;20429;-72
2023/08/02 01:13:57;;;;;;;830.38;676.80;;;;;;;;;;5052298;28;20507;-72
2023/08/02 01:16:25;;;;;;;758.13;661.67;;;;;;;;;;5060212;28;20439;-73
2023/08/02 01:19:00;;;;;;;730.33;657.22;;;;;;;;;;5068660;28;20480;-73
2023/08/02 01:21:27;;;;;;;742.72;662.63;;;;;;;;;;5062515;28;20427;-73
2023/08/02 01:23:57;;;;;;;748.53;666.30;;;;;;;;;;5061884;28;20481;-73
2023/08/02 01:26:26;;;;;;;698.00;636.30;;;;;;;;;;5052231;28;20432;-73
2023/08/02 01:28:55;;;;;;;729.33;658.40;;;;;;;;;;5055095;28;20788;-71
2023/08/02 01:31:23;;;;;;;544.42;492.65;;;;;;;;;;5069674;28;20431;-74
2023/08/02 01:33:52;;;;;;;716.30;652.40;;;;;;;;;;5066052;28;20455;-75
2023/08/02 01:36:20;;;;;;;755.78;673.88;;;;;;;;;;5057069;28;20482;-73
2023/08/02 01:38:47;;;;;;;759.30;676.65;;;;;;;;;;5064960;28;20431;-72
2023/08/02 01:41:14;;;;;;;755.42;672.92;;;;;;;;;;5067505;28;20470;-73
2023/08/02 01:43:44;;;;;;;692.05;628.53;;;;;;;;;;5069559;28;20504;-73
2023/08/02 01:46:11;;;;;;;732.22;663.10;;;;;;;;;;5061546;28;20502;-73
2023/08/02 01:48:38;;;;;;;724.17;656.70;;;;;;;;;;5063399;28;21101;-74
2023/08/02 01:51:06;;;;;;;659.50;593.72;;;;;;;;;;5058735;28;20416;-73
2023/08/02 01:53:33;;;;;;;694.28;630.25;;;;;;;;;;5057013;28;20441;-73
2023/08/02 01:56:00;;;;;;;705.28;638.95;;;;;;;;;;5063301;28;20441;-73
2023/08/02 01:58:29;;;;;;;685.92;624.20;;;;;;;;;;5066798;28;20836;-73
2023/08/02 02:00:56;;;;;;;701.90;637.03;;;;;;;;;;5063607;28;20997;-73
2023/08/02 02:03:26;;;;;;;264.52;242.00;;;;;;;;;;5058248;28;20432;-71
2023/08/02 02:05:54;;;;;;;418.80;381.85;;;;;;;;;;5068258;28;20434;-72
2023/08/02 02:08:24;;;;;;;150.73;138.05;;;;;;;;;;5068210;28;20488;-72
2023/08/02 02:10:51;;;;;;;13.60;12.73;;;;;;;;;;5052210;28;20491;-71
2023/08/02 02:13:19;;;;;;;28.42;26.48;;;;;;;;;;5055986;28;20520;-72
2023/08/02 02:15:46;;;;;;;5.97;5.43;;;;;;;;;;5063366;28;20810;-72
2023/08/02 02:18:16;;;;;;;270.00;246.15;;;;;;;;;;5072121;28;20561;-72
2023/08/02 02:20:43;;;;;;;265.80;243.07;;;;;;;;;;5065835;28;20458;-73
2023/08/02 02:23:11;;;;;;;167.37;154.20;;;;;;;;;;5067797;28;20485;-71
2023/08/02 02:25:38;;;;;;;275.17;251.80;;;;;;;;;;5055910;28;20494;-72
2023/08/02 02:28:05;;;;;;;482.27;439.53;;;;;;;;;;5058607;28;20431;-72
2023/08/02 02:30:33;;;;;;;306.63;279.20;;;;;;;;;;5051902;28;22320;-73
2023/08/02 02:33:00;;;;;;;118.38;109.50;;;;;;;;;;5059073;28;20986;-71
2023/08/02 02:35:27;;;;;;;12.05;11.35;;;;;;;;;;5058507;28;20429;-72
2023/08/02 02:37:54;;;;;;;653.03;593.00;;;;;;;;;;5070842;28;20434;-71
2023/08/02 02:40:22;;;;;;;339.20;308.03;;;;;;;;;;5060337;28;20431;-70
2023/08/02 02:42:51;;;;;;;2.97;1.70;;;;;;;;;;5055122;28;20866;-72
2023/08/02 02:45:18;;;;;;;3.85;2.78;;;;;;;;;;5066981;28;20522;-74
2023/08/02 02:47:46;;;;;;;253.77;228.68;;;;;;;;;;5060420;28;20495;-72
2023/08/02 02:50:13;;;;;;;2.97;1.30;;;;;;;;;;5062412;28;20477;-72
2023/08/02 02:52:41;;;;;;;708.50;631.80;;;;;;;;;;5055619;28;20497;-72
2023/08/02 02:55:09;;;;;;;738.47;648.72;;;;;;;;;;5052095;28;20435;-74
2023/08/02 02:57:39;;;;;;;565.70;511.73;;;;;;;;;;5057232;28;20449;-72
2023/08/02 03:00:07;;;;;;;147.27;134.67;;;;;;;;;;5061954;28;20547;-73
2023/08/02 03:02:34;;;;;;;68.25;61.90;;;;;;;;;;5060436;28;20427;-72
2023/08/02 03:05:02;;;;;;;687.08;621.08;;;;;;;;;;5053993;28;20436;-73
2023/08/02 03:07:32;;;;;;;619.37;562.03;;;;;;;;;;5048511;28;20429;-72
2023/08/02 03:09:59;;;;;;;263.73;238.27;;;;;;;;;;5065014;28;20440;-74
2023/08/02 03:12:26;;;;;;;2.30;1.58;;;;;;;;;;5052883;28;20566;-73
2023/08/02 03:14:54;;;;;;;3.27;1.70;;;;;;;;;;5059629;28;20460;-72
2023/08/02 03:17:21;;;;;;;3.40;1.90;;;;;;;;;;5061685;28;20470;-72
2023/08/02 03:19:48;;;;;;;4.45;2.17;;;;;;;;;;5070076;28;20438;-73
2023/08/02 03:22:16;;;;;;;57.78;53.65;;;;;;;;;;5053419;28;20518;-73
2023/08/02 03:24:43;;;;;;;454.70;412.67;;;;;;;;;;5067451;28;20464;-73
2023/08/02 03:27:10;;;;;;;540.08;489.00;;;;;;;;;;5062878;28;20444;-74
2023/08/02 03:29:37;;;;;;;606.67;546.95;;;;;;;;;;5063472;28;20425;-73
2023/08/02 03:32:04;;;;;;;14.48;13.32;;;;;;;;;;5066406;28;20508;-73
2023/08/02 03:34:34;;;;;;;55.63;51.42;;;;;;;;;;5060945;28;20981;-74
2023/08/02 03:37:01;;;;;;;235.05;215.20;;;;;;;;;;5052498;28;20438;-74
2023/08/02 03:39:29;;;;;;;596.60;541.40;;;;;;;;;;5052997;28;20425;-74
2023/08/02 03:41:56;;;;;;;515.08;464.52;;;;;;;;;;5061142;28;20834;-72
2023/08/02 03:44:23;;;;;;;8.23;6.90;;;;;;;;;;5067925;28;20435;-73
2023/08/02 03:46:50;;;;;;;4.50;3.88;;;;;;;;;;5065674;28;20423;-76
2023/08/02 03:49:29;;;;;;;230.77;210.98;;;;;;;;;;5086256;28;20428;-73
2023/08/02 03:51:57;;;;;;;156.45;142.98;;;;;;;;;;5060724;28;20854;-74
2023/08/02 03:54:26;;;;;;;329.10;298.77;;;;;;;;;;5057065;28;21199;-73
2023/08/02 03:56:53;;;;;;;639.17;575.42;;;;;;;;;;5063183;28;20439;-73
2023/08/02 03:59:20;;;;;;;73.95;68.75;;;;;;;;;;5056798;28;20520;-73
2023/08/02 04:01:48;;;;;;;224.05;205.82;;;;;;;;;;5057637;28;20434;-75
2023/08/02 04:04:15;;;;;;;347.25;314.95;;;;;;;;;;5057166;28;20432;-74
2023/08/02 04:06:43;;;;;;;228.25;209.32;;;;;;;;;;5063858;28;20913;-71
2023/08/02 04:09:10;;;;;;;384.50;349.10;;;;;;;;;;5061724;28;21797;-74
2023/08/02 04:11:37;;;;;;;709.00;646.60;;;;;;;;;;5061466;28;20822;-74
2023/08/02 04:14:07;;;;;;;302.05;274.83;;;;;;;;;;5059273;28;20440;-76
2023/08/02 04:16:34;;;;;;;330.27;299.77;;;;;;;;;;5060172;28;20841;-74
2023/08/02 04:19:02;;;;;;;427.20;385.90;;;;;;;;;;5061629;28;20427;-72
2023/08/02 04:21:29;;;;;;;631.90;575.72;;;;;;;;;;5063281;28;20464;-74
2023/08/02 04:23:56;;;;;;;677.90;616.42;;;;;;;;;;5058478;28;20480;-74
2023/08/02 04:26:23;;;;;;;718.50;650.90;;;;;;;;;;5055183;28;20837;-74
2023/08/02 04:28:50;;;;;;;721.22;652.70;;;;;;;;;;5066745;28;20922;-74
2023/08/02 04:31:18;;;;;;;512.67;464.92;;;;;;;;;;5056315;28;20981;-73
2023/08/02 04:33:45;;;;;;;684.42;615.63;;;;;;;;;;5056919;28;20420;-73
2023/08/02 04:36:12;;;;;;;563.90;508.45;;;;;;;;;;5061045;28;20427;-74
2023/08/02 04:38:40;;;;;;;418.85;377.65;;;;;;;;;;5062966;28;20508;-74
2023/08/02 04:41:07;;;;;;;446.83;403.25;;;;;;;;;;5055851;28;20543;-74
2023/08/02 04:43:34;;;;;;;689.80;629.03;;;;;;;;;;5058373;28;20781;-74
2023/08/02 04:46:01;;;;;;;136.55;126.55;;;;;;;;;;5067522;28;20922;-74
2023/08/02 04:48:31;;;;;;;34.97;32.75;;;;;;;;;;5073225;28;20463;-74
2023/08/02 04:50:58;;;;;;;246.70;225.80;;;;;;;;;;5059010;28;20432;-74
2023/08/02 04:53:25;;;;;;;509.70;461.10;;;;;;;;;;5051503;28;20421;-75
2023/08/02 04:55:52;;;;;;;275.33;250.32;;;;;;;;;;5054513;28;20567;-73
2023/08/02 04:58:23;;;;;;;360.13;326.37;;;;;;;;;;5057348;28;20984;-74
2023/08/02 05:00:50;;;;;;;433.23;390.95;;;;;;;;;;5045468;28;20435;-74
2023/08/02 05:03:18;;;;;;;172.32;158.45;;;;;;;;;;5044791;28;20857;-74
2023/08/02 05:05:49;;;;;;;245.63;224.37;;;;;;;;;;5063497;28;20423;-74
2023/08/02 05:08:16;;;;;;;52.10;48.60;;;;;;;;;;5057480;28;20977;-76
2023/08/02 05:10:43;;;;;;;12.57;11.77;;;;;;;;;;5052963;28;20441;-74
2023/08/02 05:13:11;;;;;;;5.10;2.20;;;;;;;;;;5062742;28;20528;-74
2023/08/02 05:15:38;;;;;;;7.20;6.68;;;;;;;;;;5048140;28;20468;-76
2023/08/02 05:18:05;;;;;;;248.90;227.55;;;;;;;;;;5060024;28;20736;-74
2023/08/02 05:20:33;;;;;;;125.93;114.88;;;;;;;;;;5061562;28;20434;-74
2023/08/02 05:23:01;;;;;;;7.70;6.70;;;;;;;;;;5058873;28;20484;-73
2023/08/02 05:25:34;;;;;;;394.17;358.05;;;;;;;;;;5063867;28;20485;-74
2023/08/02 05:28:04;;;;;;;208.40;191.52;;;;;;;;;;5057548;28;20443;-74
2023/08/02 05:30:31;;;;;;;1.90;1.80;;;;;;;;;;5059079;28;20512;-74
2023/08/02 05:32:59;;;;;;;2.15;1.95;;;;;;;;;;5067317;28;20427;-75
2023/08/02 05:35:29;;;;;;;72.68;67.70;;;;;;;;;;5058120;28;20847;-74
2023/08/02 05:37:57;;;;;;;80.97;75.25;;;;;;;;;;5048051;28;20471;-73
2023/08/02 05:40:27;;;;;;;29.77;28.00;;;;;;;;;;5050742;28;20429;-73
2023/08/02 05:42:54;;;;;;;50.15;46.78;;;;;;;;;;5060871;28;20433;-73
2023/08/02 05:45:22;;;;;;;22.35;21.08;;;;;;;;;;5064103;28;20464;-74
2023/08/02 05:47:50;;;;;;;17.45;16.30;;;;;;;;;;5065068;28;21040;-73
2023/08/02 05:50:23;;;;;;;2.22;1.92;;;;;;;;;;5067173;28;20500;-72
2023/08/02 05:52:50;;;;;;;3.30;3.00;;;;;;;;;;5061597;28;20447;-71
2023/08/02 05:55:17;;;;;;;4.13;3.25;;;;;;;;;;5064241;28;20509;-71
2023/08/02 05:57:45;;;;;;;6.00;4.87;;;;;;;;;;5062347;28;20429;-71
2023/08/02 06:00:12;;;;;;;1.73;1.63;;;;;;;;;;5065007;28;20431;-70
2023/08/02 06:02:42;;;;;;;4.65;1.70;;;;;;;;;;5059584;28;20436;-70
2023/08/02 06:05:12;;;;;;;2.38;1.40;;;;;;;;;;5056451;28;20432;-70
2023/08/02 06:07:40;;;;;;;3.25;1.40;;;;;;;;;;5060209;28;20433;-71
2023/08/02 06:10:07;;;;;;;3.92;1.80;;;;;;;;;;5060894;28;20435;-70
2023/08/02 06:12:34;;;;;;;3.03;1.60;;;;;;;;;;5063214;28;20481;-69
2023/08/02 06:15:01;;;;;;;2.90;1.73;;;;;;;;;;5052994;28;20513;-69
2023/08/02 06:17:30;;;;;;;2.97;1.50;;;;;;;;;;5050935;28;20451;-70
2023/08/02 06:19:57;;;;;;;70.65;66.03;;;;;;;;;;5061925;28;21010;-70
2023/08/02 06:22:24;;;;;;;2.47;1.70;;;;;;;;;;5064225;28;20512;-70
2023/08/02 06:24:59;;;;;;;2.47;1.65;;;;;;;;;;5062150;28;20515;-70
2023/08/02 06:27:26;;;;;;;1.67;1.58;;;;;;;;;;5058033;28;20431;-71
2023/08/02 06:29:53;;;;;;;3.13;1.60;;;;;;;;;;5057069;28;20448;-71
2023/08/02 06:32:20;;;;;;;2.90;2.00;;;;;;;;;;5059869;28;20803;-70
2023/08/02 06:34:50;;;;;;;1.98;1.88;;;;;;;;;;5071290;28;20431;-71
2023/08/02 06:37:17;;;;;;;7.28;2.55;;;;;;;;;;5067112;28;20461;-70
2023/08/02 06:39:47;;;;;;;3.60;2.30;;;;;;;;;;5061111;28;20431;-70
2023/08/02 06:42:14;;;;;;;4.70;2.90;;;;;;;;;;5061266;28;20516;-70
2023/08/02 06:44:41;;;;;;;5.85;2.80;;;;;;;;;;5061064;28;21058;-69
2023/08/02 06:47:08;;;;;;;2.50;2.30;;;;;;;;;;5057792;28;20575;-70
2023/08/02 06:49:36;;;;;;;3.97;3.57;;;;;;;;;;5066956;28;20423;-70
2023/08/02 06:52:03;;;;;;;27.97;26.30;;;;;;;;;;5057101;28;20427;-70
2023/08/02 06:54:33;;;;;;;114.63;107.38;;;;;;;;;;5052004;28;20437;-69
2023/08/02 06:57:00;;;;;;;1.90;1.80;;;;;;;;;;5058324;28;20446;-69
2023/08/02 06:59:27;;;;;;;2.58;2.00;;;;;;;;;;5078742;28;20437;-70
2023/08/02 07:01:56;;;;;;;3.53;1.60;;;;;;;;;;5064075;28;20492;-69
2023/08/02 07:04:24;;;;;;;1.60;1.50;;;;;;;;;;5055625;28;21015;-69
2023/08/02 07:06:51;;;;;;;1.73;1.60;;;;;;;;;;5057847;28;20510;-69
2023/08/02 07:09:18;;;;;;;6.80;1.70;;;;;;;;;;5061606;28;20482;-70
2023/08/02 07:11:45;;;;;;;1.48;1.30;;;;;;;;;;5059766;28;20968;-69
2023/08/02 07:14:15;;;;;;;2.22;1.67;;;;;;;;;;5061071;28;21033;-71
2023/08/02 07:16:43;;;;;;;2.10;1.50;;;;;;;;;;5055215;28;20427;-70
2023/08/02 07:19:10;;;;;;;1.67;1.50;;;;;;;;;;5059450;28;20435;-69
2023/08/02 07:21:39;;;;;;;1.50;1.40;;;;;;;;;;5057404;28;20834;-71
2023/08/02 07:24:08;;;;;;;2.42;1.42;;;;;;;;;;5059332;28;20767;-69
2023/08/02 07:26:35;;;;;;;1.63;1.52;;;;;;;;;;5055299;28;20861;-69
2023/08/02 07:29:02;;;;;;;1.63;1.27;;;;;;;;;;5064840;28;20535;-70
2023/08/02 07:31:29;;;;;;;2.10;1.33;;;;;;;;;;5062763;28;20701;-69
2023/08/02 07:33:56;;;;;;;2.15;1.52;;;;;;;;;;5058810;28;20435;-68
2023/08/02 07:36:26;;;;;;;1.70;1.52;;;;;;;;;;5056226;28;20973;-69
2023/08/02 07:38:53;;;;;;;1.50;1.40;;;;;;;;;;5053720;28;20433;-69
2023/08/02 07:41:27;;;;;;;1.23;1.15;;;;;;;;;;5059433;28;20565;-69
2023/08/02 07:43:55;;;;;;;2.20;1.40;;;;;;;;;;5064439;28;20479;-69
2023/08/02 07:46:22;;;;;;;2.75;2.53;;;;;;;;;;5058215;28;20441;-70
2023/08/02 07:48:55;;;;;;;5.60;5.30;;;;;;;;;;5051765;28;20780;-69
2023/08/02 07:51:22;;;;;;;2.55;2.45;;;;;;;;;;5058401;28;22449;-69
2023/08/02 07:53:49;;;;;;;1.73;1.42;;;;;;;;;;5053856;28;20443;-68
2023/08/02 07:56:17;;;;;;;15.15;14.35;;;;;;;;;;5059905;28;20507;-69
2023/08/02 07:58:44;;;;;;;1.95;1.20;;;;;;;;;;5061263;28;20431;-68
2023/08/02 08:01:13;;;;;;;59.97;55.90;;;;;;;;;;5057351;28;20421;-68
2023/08/02 08:03:40;;;;;;;65.63;61.15;;;;;;;;;;5061620;28;20832;-68
2023/08/02 08:06:23;;;;;;;439.13;397.98;;;;;;;;;;5060400;28;20488;-68
2023/08/02 08:08:56;;;;;;;413.95;377.45;;;;;;;;;;5058057;28;20423;-67
2023/08/02 08:11:26;;;;;;;144.02;134.05;;;;;;;;;;5078889;28;20492;-68
2023/08/02 08:13:53;;;;;;;211.57;195.80;;;;;;;;;;5060132;28;20512;-68
2023/08/02 08:16:21;;;;;;;321.83;295.05;;;;;;;;;;5058591;28;20427;-68
2023/08/02 08:18:48;;;;;;;310.13;284.35;;;;;;;;;;5060901;28;20443;-68
2023/08/02 08:21:18;;;;;;;337.63;309.50;;;;;;;;;;5060483;28;20745;-67
2023/08/02 08:23:45;;;;;;;246.15;227.23;;;;;;;;;;5058729;28;20429;-67
2023/08/02 08:26:12;;;;;;;4.70;4.43;;;;;;;;;;5059776;28;20434;-67
2023/08/02 08:28:39;;;;;;;3.17;3.00;;;;;;;;;;5062058;28;20428;-67
2023/08/02 08:31:07;;;;;;;2.63;2.42;;;;;;;;;;5058268;28;20903;-68
2023/08/02 08:33:34;;;;;;;1.77;1.50;;;;;;;;;;5056503;28;20523;-67
2023/08/02 08:36:01;;;;;;;1.30;1.20;;;;;;;;;;5074625;28;20428;-67
2023/08/02 08:38:30;;;;;;;8.98;8.48;;;;;;;;;;5064838;28;20447;-66
2023/08/02 08:41:00;;;;;;;2.28;2.13;;;;;;;;;;5058694;28;20460;-67
2023/08/02 08:43:28;;;;;;;4.05;3.75;;;;;;;;;;5057331;28;20444;-67
2023/08/02 08:45:56;;;;;;;96.97;90.50;;;;;;;;;;5057228;28;20499;-67
2023/08/02 08:48:25;;;;;;;1.40;1.30;;;;;;;;;;5059659;28;20431;-66
2023/08/02 08:50:54;;;;;;;2.17;1.38;;;;;;;;;;5058316;28;20506;-67
2023/08/02 08:53:33;;;;;;;1.10;1.10;;;;;;;;;;5058873;28;20435;-66
2023/08/02 08:56:03;;;;;;;2.10;1.30;;;;;;;;;;5060943;28;21144;-67
2023/08/02 08:58:36;;;;;;;1.75;1.00;;;;;;;;;;5059430;28;20439;-68
2023/08/02 09:01:04;;;;;;;160.77;143.05;;;;;;;;;;5066582;28;20463;-68
2023/08/02 09:03:33;;;;;;;1.42;1.42;;;;;;;;;;5062731;28;20431;-67
2023/08/02 09:06:04;;;;;;;1.80;1.20;;;;;;;;;;5063544;28;20790;-68
2023/08/02 09:08:42;;;;;;;1.17;1.10;;;;;;;;;;5059179;28;20952;-68
2023/08/02 09:11:12;;;;;;;1.27;1.20;;;;;;;;;;5058486;28;21132;-68
2023/08/02 09:13:42;;;;;;;1.20;1.10;;;;;;;;;;5060484;28;20451;-68
2023/08/02 09:16:11;;;;;;;0.85;0.85;;;;;;;;;;5057829;28;20530;-68
2023/08/02 09:18:40;;;;;;;1.40;1.20;;;;;;;;;;5061658;28;20443;-68
2023/08/02 09:21:08;;;;;;;1.27;1.17;;;;;;;;;;5065630;28;20482;-68
2023/08/02 09:23:35;;;;;;;1.60;1.33;;;;;;;;;;5057688;28;20431;-69
2023/08/02 09:26:15;;;;;;;1.20;1.02;;;;;;;;;;5062558;28;20936;-69
2023/08/02 09:29:00;;;;;;;1.73;1.20;;;;;;;;;;5059723;28;20481;-68
2023/08/02 09:31:28;;;;;;;1.08;1.00;;;;;;;;;;5050468;28;20455;-67
2023/08/02 09:33:57;;;;;;;1.53;0.80;;;;;;;;;;5061972;28;20524;-67
2023/08/02 09:36:29;;;;;;;0.82;0.82;;;;;;;;;;5061910;28;20431;-67
2023/08/02 09:39:06;;;;;;;1.10;1.10;;;;;;;;;;5056622;28;20432;-68
2023/08/02 09:41:33;;;;;;;1.10;1.10;;;;;;;;;;5060334;28;20522;-68
2023/08/02 09:44:04;;;;;;;1.00;1.00;;;;;;;;;;5064484;28;20435;-68
2023/08/02 09:46:35;;;;;;;1.75;1.10;;;;;;;;;;5060483;28;20431;-68
2023/08/02 09:49:16;;;;;;;2.30;1.13;;;;;;;;;;5061703;28;20938;-68
2023/08/02 09:51:44;;;;;;;3.17;1.17;;;;;;;;;;5058428;28;20478;-68
2023/08/02 09:54:13;;;;;;;2.35;1.00;;;;;;;;;;5063792;28;20450;-68
2023/08/02 09:56:42;;;;;;;1.52;1.10;;;;;;;;;;5060820;28;20492;-69
2023/08/02 09:59:12;;;;;;;0.90;0.90;;;;;;;;;;5056221;28;20427;-68
2023/08/02 10:01:39;;;;;;;1.00;1.00;;;;;;;;;;5056867;28;20430;-69
2023/08/02 10:04:10;;;;;;;0.80;0.80;;;;;;;;;;5060289;28;20431;-69
2023/08/02 10:06:46;;;;;;;1.90;0.90;;;;;;;;;;5062775;28;20459;-69
2023/08/02 10:09:19;;;;;;;0.80;0.80;;;;;;;;;;5054801;28;20433;-69
2023/08/02 10:11:53;;;;;;;2.20;1.15;;;;;;;;;;5058328;28;20427;-69
2023/08/02 10:14:22;;;;;;;0.90;0.90;;;;;;;;;;5054399;28;20451;-69
2023/08/02 10:16:51;;;;;;;0.95;0.95;;;;;;;;;;5058326;28;20427;-68
2023/08/02 10:19:18;;;;;;;1.10;1.10;;;;;;;;;;5061069;28;20431;-70
2023/08/02 10:21:46;;;;;;;2.13;1.10;;;;;;;;;;5064224;28;21094;-69
2023/08/02 10:24:14;;;;;;;1.00;1.00;;;;;;;;;;5058262;28;20528;-69
2023/08/02 10:26:41;;;;;;;0.90;0.90;;;;;;;;;;5058908;28;20439;-69
2023/08/02 10:29:10;;;;;;;11.40;10.73;;;;;;;;;;5064553;28;20431;-67
2023/08/02 10:31:38;;;;;;;6.88;6.57;;;;;;;;;;5059849;28;20432;-67
2023/08/02 10:34:28;;;;;;;9.88;9.40;;;;;;;;;;5056029;28;20427;-67
2023/08/02 10:36:55;;;;;;;4.47;4.38;;;;;;;;;;5035088;28;20528;-69
2023/08/02 10:39:41;;;;;;;30.80;29.17;;;;;;;;;;5063928;28;20481;-68
2023/08/02 10:42:08;;;;;;;14.23;13.57;;;;;;;;;;5057999;28;20431;-67
2023/08/02 10:44:35;;;;;;;1.10;1.10;;;;;;;;;;5059176;28;20439;-67
2023/08/02 10:47:32;;;;;;;46.80;44.27;;;;;;;;;;5058628;28;20429;-67
2023/08/02 10:50:00;;;;;;;5.50;5.25;;;;;;;;;;4999462;28;20842;-69
2023/08/02 10:52:27;;;;;;;0.80;0.80;;;;;;;;;;5004220;28;20427;-68
2023/08/02 10:55:16;;;;;;;1.25;1.00;;;;;;;;;;4998567;28;20427;-67
2023/08/02 10:57:58;;;;;;;0.73;0.70;;;;;;;;;;5001021;28;20494;-68
2023/08/02 11:00:27;;;;;;;2.00;0.77;;;;;;;;;;5003286;28;21143;-68
2023/08/02 11:02:56;;;;;;;0.40;0.40;;;;;;;;;;5003663;28;20783;-67
2023/08/02 11:05:42;;;;;;;0.73;0.73;;;;;;;;;;5003439;28;20443;-68
2023/08/02 11:08:12;;;;;;;21.42;20.38;;;;;;;;;;4997471;28;20781;-68
2023/08/02 11:10:46;;;;;;;6.40;6.07;;;;;;;;;;5004744;28;20483;-67
2023/08/02 11:13:16;;;;;;;97.05;91.43;;;;;;;;;;4999311;28;20452;-67
2023/08/02 11:15:43;;;;;;;33.50;31.83;;;;;;;;;;4996090;28;20567;-68
2023/08/02 11:18:16;;;;;;;122.38;110.03;;;;;;;;;;4998940;28;20475;-68
2023/08/02 11:21:10;;;;;;;536.63;309.33;;;;;;;;;;4999459;28;20434;-69
2023/08/02 11:23:37;;;;;;;523.78;273.80;;;;;;;;;;5000376;28;20440;-68
2023/08/02 11:26:24;;;;;;;507.80;234.47;;;;;;;;;;5027908;28;20416;-69
2023/08/02 11:28:53;;;;;;;536.55;268.98;;;;;;;;;;5061789;28;20427;-70
2023/08/02 11:31:28;;;;;;;503.05;226.75;;;;;;;;;;5062777;28;20736;-69
2023/08/02 11:33:56;;;;;;;499.20;220.63;;;;;;;;;;5063215;28;20429;-69
2023/08/02 11:36:23;;;;;;;500.75;232.93;;;;;;;;;;5061978;28;20857;-69
2023/08/02 11:38:53;;;;;;;499.00;234.38;;;;;;;;;;5061545;28;20459;-69
2023/08/02 11:41:20;;;;;;;504.38;240.57;;;;;;;;;;5064812;28;20495;-69
2023/08/02 11:43:48;;;;;;;499.00;219.57;;;;;;;;;;5066478;28;20496;-69
2023/08/02 11:46:21;;;;;;;502.27;228.20;;;;;;;;;;5069521;28;20427;-69
2023/08/02 11:48:49;;;;;;;503.80;233.43;;;;;;;;;;5065965;28;20493;-69
2023/08/02 11:51:17;;;;;;;499.23;239.02;;;;;;;;;;5068777;28;20427;-69
2023/08/02 11:53:55;;;;;;;522.20;283.10;;;;;;;;;;5080460;28;20439;-69
2023/08/02 11:56:23;;;;;;;535.85;309.25;;;;;;;;;;5065327;28;21116;-69
2023/08/02 11:58:51;;;;;;;532.75;304.92;;;;;;;;;;5067411;28;20427;-68
2023/08/02 12:01:19;;;;;;;534.70;305.07;;;;;;;;;;5065670;28;20431;-69
2023/08/02 12:03:53;;;;;;;538.75;314.20;;;;;;;;;;5058017;28;20441;-68
2023/08/02 12:06:24;;;;;;;534.97;304.52;;;;;;;;;;5059639;28;21260;-68
2023/08/02 12:08:56;;;;;;;529.85;292.67;;;;;;;;;;5060863;28;20431;-67
2023/08/02 12:11:24;;;;;;;538.85;309.35;;;;;;;;;;5083796;28;20956;-68
2023/08/02 12:13:52;;;;;;;539.20;314.23;;;;;;;;;;5067616;28;20510;-68
2023/08/02 12:16:20;;;;;;;529.33;292.58;;;;;;;;;;5068680;28;20763;-68
2023/08/02 12:18:51;;;;;;;543.85;318.90;;;;;;;;;;5059253;28;20506;-68
2023/08/02 12:21:19;;;;;;;545.53;321.92;;;;;;;;;;5061993;28;20806;-68
2023/08/02 12:23:46;;;;;;;548.45;333.85;;;;;;;;;;5064573;28;20502;-68
2023/08/02 12:26:31;;;;;;;550.50;343.25;;;;;;;;;;5069162;28;21184;-68
2023/08/02 12:28:59;;;;;;;553.63;347.92;;;;;;;;;;5065416;28;20492;-67
2023/08/02 12:31:46;;;;;;;555.67;354.75;;;;;;;;;;5062135;28;21045;-68
2023/08/02 12:34:13;;;;;;;545.28;334.15;;;;;;;;;;5059002;28;20477;-67
2023/08/02 12:36:40;;;;;;;546.35;330.90;;;;;;;;;;5067458;28;20435;-68
2023/08/02 12:39:08;;;;;;;555.42;340.13;;;;;;;;;;5059545;28;20516;-68
2023/08/02 12:41:35;;;;;;;557.78;348.15;;;;;;;;;;5059208;28;20439;-68
2023/08/02 12:44:03;;;;;;;561.27;351.23;;;;;;;;;;5066039;28;20523;-68
2023/08/02 12:46:32;;;;;;;567.22;367.75;;;;;;;;;;5067773;28;20514;-68
2023/08/02 12:48:59;;;;;;;572.00;375.95;;;;;;;;;;5058386;28;20511;-68
2023/08/02 12:51:28;;;;;;;588.72;388.35;;;;;;;;;;5051163;28;20452;-68
2023/08/02 12:53:55;;;;;;;617.25;424.90;;;;;;;;;;5060599;28;21104;-68
2023/08/02 12:56:22;;;;;;;634.40;437.48;;;;;;;;;;5059473;28;20506;-67
2023/08/02 12:58:49;;;;;;;670.35;483.77;;;;;;;;;;5059726;28;20458;-67
2023/08/02 13:01:16;;;;;;;704.17;527.17;;;;;;;;;;5060347;28;20471;-68
2023/08/02 13:03:44;;;;;;;719.58;545.03;;;;;;;;;;5059615;28;21271;-67
2023/08/02 13:06:11;;;;;;;728.95;552.22;;;;;;;;;;5063276;28;20518;-67
2023/08/02 13:08:39;;;;;;;730.37;546.50;;;;;;;;;;5066560;28;20994;-67
2023/08/02 13:11:06;;;;;;;724.78;550.65;;;;;;;;;;5068258;28;20452;-67
2023/08/02 13:13:36;;;;;;;723.63;548.92;;;;;;;;;;5066035;28;20419;-67
2023/08/02 13:16:03;;;;;;;727.45;560.17;;;;;;;;;;5060774;28;20544;-68
2023/08/02 13:18:31;;;;;;;742.78;574.88;;;;;;;;;;5048735;28;20429;-66
2023/08/02 13:20:58;;;;;;;769.65;620.10;;;;;;;;;;5058162;28;21545;-66
2023/08/02 13:23:26;;;;;;;767.60;602.97;;;;;;;;;;5061458;28;20485;-66
2023/08/02 13:25:56;;;;;;;771.15;608.65;;;;;;;;;;5054378;28;20535;-66
2023/08/02 13:28:23;;;;;;;753.93;582.73;;;;;;;;;;5067537;28;20474;-67
2023/08/02 13:30:51;;;;;;;740.97;577.25;;;;;;;;;;5060795;28;20482;-65
2023/08/02 13:33:18;;;;;;;739.72;595.70;;;;;;;;;;5063737;28;20961;-65
2023/08/02 13:35:45;;;;;;;743.35;582.08;;;;;;;;;;5059094;28;20463;-65
2023/08/02 13:38:15;;;;;;;692.85;514.92;;;;;;;;;;5059486;28;20427;-65
2023/08/02 13:40:43;;;;;;;696.15;523.63;;;;;;;;;;5059479;28;20814;-65
2023/08/02 13:43:10;;;;;;;700.20;519.35;;;;;;;;;;5065714;28;20801;-65
2023/08/02 13:45:37;;;;;;;699.35;524.42;;;;;;;;;;5060333;28;20999;-65
2023/08/02 13:48:05;;;;;;;714.08;540.22;;;;;;;;;;5063069;28;20758;-65
2023/08/02 13:50:33;;;;;;;727.53;556.35;;;;;;;;;;5057829;28;20825;-64
2023/08/02 13:53:00;;;;;;;734.20;561.78;;;;;;;;;;5053136;28;20480;-65
2023/08/02 13:55:27;;;;;;;734.33;557.33;;;;;;;;;;5057231;28;20475;-65
2023/08/02 13:57:54;;;;;;;708.55;523.28;;;;;;;;;;5064141;28;20442;-64
2023/08/02 14:00:22;;;;;;;708.47;526.20;;;;;;;;;;5058386;28;20460;-64
2023/08/02 14:02:49;;;;;;;712.55;536.35;;;;;;;;;;5058505;28;20441;-64
2023/08/02 14:05:16;;;;;;;703.40;526.90;;;;;;;;;;5062603;28;20798;-65
2023/08/02 14:07:46;;;;;;;723.17;563.87;;;;;;;;;;5054748;28;20427;-64
2023/08/02 14:10:16;;;;;;;750.85;576.78;;;;;;;;;;5062554;28;20423;-64
2023/08/02 14:12:43;;;;;;;772.70;598.45;;;;;;;;;;5056812;28;20513;-64
2023/08/02 14:15:11;;;;;;;777.22;609.30;;;;;;;;;;5053662;28;20518;-64
2023/08/02 14:17:38;;;;;;;765.00;589.38;;;;;;;;;;5063371;28;20928;-64
2023/08/02 14:20:06;;;;;;;761.13;583.57;;;;;;;;;;5064067;28;20435;-64
2023/08/02 14:22:33;;;;;;;764.57;590.30;;;;;;;;;;5064105;28;20837;-64
2023/08/02 14:25:03;;;;;;;751.78;588.60;;;;;;;;;;5064044;28;20491;-65